Time;durP1;ratioP1;P1;durP2;ratioP2;P2;SDS_P1;SDS_P2;PMS_P1;PMS_P2;Temp;Humidity;BMP_temperature;BMP_pressure;BME280_temperature;BME280_humidity;BME280_pressure;Samples;Min_cycle;Max_cycle;Signal;HPM_P1;HPM_P2
2024/03/08 00:00:42;;;;;;;13.70;9.07;;;;;;;;;;5027631;28;20029;-57
2024/03/08 00:03:10;;;;;;;13.52;8.43;;;;;;;;;;5026203;28;20025;-57
2024/03/08 00:05:38;;;;;;;13.48;8.32;;;;;;;;;;5027475;28;20052;-58
2024/03/08 00:08:04;;;;;;;13.48;8.32;;;;;;;;;;5027681;28;20025;-56
2024/03/08 00:10:30;;;;;;;13.50;8.30;;;;;;;;;;5027247;28;20472;-56
2024/03/08 00:12:57;;;;;;;13.32;7.90;;;;;;;;;;5026551;28;20044;-59
2024/03/08 00:15:23;;;;;;;13.60;8.82;;;;;;;;;;5025698;28;20033;-54
2024/03/08 00:17:50;;;;;;;14.85;11.32;;;;;;;;;;5027617;28;20026;-52
2024/03/08 00:20:17;;;;;;;13.30;7.90;;;;;;;;;;5027402;28;20602;-61
2024/03/08 00:22:44;;;;;;;13.40;7.90;;;;;;;;;;5026622;28;20026;-56
2024/03/08 00:25:10;;;;;;;13.02;7.70;;;;;;;;;;5027134;28;20268;-54
2024/03/08 00:27:36;;;;;;;21.20;19.00;;;;;;;;;;5026614;28;20021;-56
2024/03/08 00:30:02;;;;;;;16.17;10.88;;;;;;;;;;5033701;28;20140;-56
2024/03/08 00:32:28;;;;;;;12.88;7.40;;;;;;;;;;5046130;28;20060;-60
2024/03/08 00:34:54;;;;;;;13.15;7.60;;;;;;;;;;5034569;28;20029;-58
2024/03/08 00:37:21;;;;;;;13.20;7.80;;;;;;;;;;5030866;28;20033;-58
2024/03/08 00:39:49;;;;;;;13.35;8.23;;;;;;;;;;5029906;28;20033;-56
2024/03/08 00:42:15;;;;;;;13.20;7.90;;;;;;;;;;5029522;28;20045;-57
2024/03/08 00:44:41;;;;;;;13.40;8.00;;;;;;;;;;5030035;28;20626;-58
2024/03/08 00:47:07;;;;;;;13.27;7.80;;;;;;;;;;5029981;28;20085;-56
2024/03/08 00:49:33;;;;;;;13.20;7.65;;;;;;;;;;5029717;28;20506;-57
2024/03/08 00:51:59;;;;;;;13.80;9.27;;;;;;;;;;5029344;28;20037;-56
2024/03/08 00:54:25;;;;;;;14.25;8.43;;;;;;;;;;5029661;28;20040;-58
2024/03/08 00:56:51;;;;;;;13.20;7.80;;;;;;;;;;5030196;28;20036;-56
2024/03/08 00:59:17;;;;;;;13.40;8.00;;;;;;;;;;5029901;28;20025;-58
2024/03/08 01:01:43;;;;;;;13.38;8.10;;;;;;;;;;5029746;28;20424;-60
2024/03/08 01:04:10;;;;;;;13.20;7.80;;;;;;;;;;5029581;28;20033;-56
2024/03/08 01:06:36;;;;;;;13.27;8.63;;;;;;;;;;5030126;28;20033;-55
2024/03/08 01:09:02;;;;;;;14.18;9.30;;;;;;;;;;5029872;28;20464;-57
2024/03/08 01:11:28;;;;;;;13.88;8.90;;;;;;;;;;5029939;28;20499;-57
2024/03/08 01:13:54;;;;;;;13.30;7.85;;;;;;;;;;5029775;28;20056;-58
2024/03/08 01:16:21;;;;;;;13.23;7.70;;;;;;;;;;5030117;28;20025;-58
2024/03/08 01:18:47;;;;;;;13.30;8.00;;;;;;;;;;5028491;28;20026;-57
2024/03/08 01:21:13;;;;;;;15.27;10.93;;;;;;;;;;5029379;28;20441;-56
2024/03/08 01:23:39;;;;;;;13.32;7.97;;;;;;;;;;5029159;28;20049;-57
2024/03/08 01:26:06;;;;;;;17.20;8.90;;;;;;;;;;5029525;28;20100;-57
2024/03/08 01:28:34;;;;;;;13.35;7.90;;;;;;;;;;5028202;28;20029;-58
2024/03/08 01:31:00;;;;;;;14.15;9.63;;;;;;;;;;5029339;28;20532;-58
2024/03/08 01:33:27;;;;;;;13.40;7.90;;;;;;;;;;5027581;28;20034;-59
2024/03/08 01:35:53;;;;;;;13.70;8.43;;;;;;;;;;5029426;28;20369;-56
2024/03/08 01:38:21;;;;;;;13.27;8.10;;;;;;;;;;5028814;28;20478;-57
2024/03/08 01:40:48;;;;;;;13.35;7.93;;;;;;;;;;5028820;28;20025;-54
2024/03/08 01:43:26;;;;;;;17.73;11.63;;;;;;;;;;5028640;28;20037;-56
2024/03/08 01:45:53;;;;;;;13.23;7.80;;;;;;;;;;5029201;28;20069;-56
2024/03/08 01:48:21;;;;;;;13.27;7.78;;;;;;;;;;5029124;28;20060;-56
2024/03/08 01:50:48;;;;;;;13.40;8.10;;;;;;;;;;5029078;28;20471;-55
2024/03/08 01:53:15;;;;;;;12.82;7.57;;;;;;;;;;5027117;28;20471;-58
2024/03/08 01:55:42;;;;;;;13.60;8.27;;;;;;;;;;5029212;28;20138;-54
2024/03/08 01:58:10;;;;;;;13.60;8.75;;;;;;;;;;5029003;28;20060;-56
2024/03/08 02:00:38;;;;;;;13.15;7.70;;;;;;;;;;5028886;28;20100;-57
2024/03/08 02:03:04;;;;;;;13.15;7.72;;;;;;;;;;5026865;28;20121;-58
2024/03/08 02:05:30;;;;;;;12.95;7.50;;;;;;;;;;5028920;28;20056;-54
2024/03/08 02:07:56;;;;;;;13.05;7.55;;;;;;;;;;5027562;28;20033;-58
2024/03/08 02:10:22;;;;;;;13.15;7.80;;;;;;;;;;5028770;28;20140;-54
2024/03/08 02:12:49;;;;;;;13.30;8.25;;;;;;;;;;5026418;28;20129;-54
2024/03/08 02:15:15;;;;;;;16.25;9.20;;;;;;;;;;5028766;28;20025;-56
2024/03/08 02:17:41;;;;;;;13.32;7.90;;;;;;;;;;5028790;28;20048;-54
2024/03/08 02:20:09;;;;;;;13.43;8.00;;;;;;;;;;5027507;28;20052;-52
2024/03/08 02:22:35;;;;;;;14.18;9.00;;;;;;;;;;5028182;28;20030;-55
2024/03/08 02:25:03;;;;;;;13.35;7.93;;;;;;;;;;5027390;28;20057;-51
2024/03/08 02:27:29;;;;;;;13.30;7.95;;;;;;;;;;5028971;28;20029;-55
2024/03/08 02:29:56;;;;;;;13.10;7.60;;;;;;;;;;5027389;28;20044;-53
2024/03/08 02:32:22;;;;;;;14.00;8.52;;;;;;;;;;5028199;28;20083;-57
2024/03/08 02:34:49;;;;;;;13.50;8.52;;;;;;;;;;5028838;28;20446;-55
2024/03/08 02:37:15;;;;;;;13.32;7.90;;;;;;;;;;5027312;28;20140;-51
2024/03/08 02:39:41;;;;;;;13.35;7.90;;;;;;;;;;5028597;28;20049;-55
2024/03/08 02:42:07;;;;;;;13.38;8.00;;;;;;;;;;5027979;28;20083;-56
2024/03/08 02:44:33;;;;;;;13.90;8.90;;;;;;;;;;5027272;28;20049;-55
2024/03/08 02:46:59;;;;;;;13.27;7.85;;;;;;;;;;5028528;28;20492;-52
2024/03/08 02:49:26;;;;;;;13.40;8.18;;;;;;;;;;5028362;28;20155;-57
2024/03/08 02:51:52;;;;;;;13.40;7.90;;;;;;;;;;5028004;28;20026;-58
2024/03/08 02:54:19;;;;;;;13.30;7.90;;;;;;;;;;5028057;28;20048;-54
2024/03/08 02:56:46;;;;;;;13.88;8.35;;;;;;;;;;5028346;28;20034;-58
2024/03/08 02:59:12;;;;;;;13.18;7.80;;;;;;;;;;5028128;28;20121;-54
2024/03/08 03:01:39;;;;;;;13.40;8.05;;;;;;;;;;5027945;28;20049;-57
2024/03/08 03:04:05;;;;;;;13.43;8.10;;;;;;;;;;5027835;28;20020;-57
2024/03/08 03:06:31;;;;;;;13.43;8.18;;;;;;;;;;5028062;28;20025;-56
2024/03/08 03:08:57;;;;;;;13.43;8.10;;;;;;;;;;5028014;28;20084;-58
2024/03/08 03:11:23;;;;;;;13.90;9.45;;;;;;;;;;5027905;28;20026;-57
2024/03/08 03:13:49;;;;;;;13.48;8.32;;;;;;;;;;5027652;28;20116;-56
2024/03/08 03:16:19;;;;;;;13.38;8.20;;;;;;;;;;5028227;28;20109;-54
2024/03/08 03:18:45;;;;;;;13.48;8.20;;;;;;;;;;5028159;28;20076;-56
2024/03/08 03:21:12;;;;;;;13.27;7.90;;;;;;;;;;5027751;28;20026;-56
2024/03/08 03:23:39;;;;;;;13.60;8.40;;;;;;;;;;5028930;28;20018;-57
2024/03/08 03:26:07;;;;;;;13.25;7.90;;;;;;;;;;5031934;28;20475;-58
2024/03/08 03:28:33;;;;;;;14.38;9.40;;;;;;;;;;5031864;28;20525;-56
2024/03/08 03:30:59;;;;;;;13.20;7.93;;;;;;;;;;5031534;28;20033;-56
2024/03/08 03:33:25;;;;;;;13.27;8.02;;;;;;;;;;5031299;28;20375;-55
2024/03/08 03:35:54;;;;;;;13.27;7.88;;;;;;;;;;5031981;28;20458;-55
2024/03/08 03:38:23;;;;;;;13.50;8.57;;;;;;;;;;5031773;28;20391;-54
2024/03/08 03:40:52;;;;;;;13.35;8.07;;;;;;;;;;5031435;28;20017;-55
2024/03/08 03:43:18;;;;;;;13.50;8.25;;;;;;;;;;5030719;28;20045;-58
2024/03/08 03:45:44;;;;;;;13.35;8.10;;;;;;;;;;5031600;28;20070;-56
2024/03/08 03:48:10;;;;;;;13.30;7.90;;;;;;;;;;5031342;28;20037;-56
2024/03/08 03:50:36;;;;;;;13.50;8.15;;;;;;;;;;5031254;28;20025;-58
2024/03/08 03:53:03;;;;;;;13.70;8.80;;;;;;;;;;5030425;28;20017;-58
2024/03/08 03:55:29;;;;;;;15.27;8.50;;;;;;;;;;5031390;28;20021;-56
2024/03/08 03:57:55;;;;;;;13.38;8.25;;;;;;;;;;5031652;28;20097;-57
2024/03/08 04:00:21;;;;;;;13.43;8.10;;;;;;;;;;5031265;28;20531;-54
2024/03/08 04:02:47;;;;;;;13.40;8.15;;;;;;;;;;5030510;28;20112;-54
2024/03/08 04:05:13;;;;;;;13.32;8.10;;;;;;;;;;5031198;28;20121;-54
2024/03/08 04:07:39;;;;;;;13.43;8.13;;;;;;;;;;5031040;28;20029;-55
2024/03/08 04:10:06;;;;;;;13.40;8.13;;;;;;;;;;5030915;28;20164;-54
2024/03/08 04:12:35;;;;;;;15.52;13.77;;;;;;;;;;5030317;28;20063;-53
2024/03/08 04:15:01;;;;;;;13.40;8.00;;;;;;;;;;5031001;28;20032;-57
2024/03/08 04:17:27;;;;;;;40.75;17.60;;;;;;;;;;5030723;28;20094;-57
2024/03/08 04:19:53;;;;;;;12.98;7.60;;;;;;;;;;5030669;28;20030;-57
2024/03/08 04:22:20;;;;;;;13.10;7.80;;;;;;;;;;5030015;28;20056;-57
2024/03/08 04:24:46;;;;;;;13.07;7.75;;;;;;;;;;5030530;28;20033;-55
2024/03/08 04:27:12;;;;;;;13.60;8.73;;;;;;;;;;5030797;28;20136;-53
2024/03/08 04:29:38;;;;;;;13.23;7.80;;;;;;;;;;5030355;28;20037;-57
2024/03/08 04:32:06;;;;;;;16.02;10.27;;;;;;;;;;5030239;28;20037;-56
2024/03/08 04:34:32;;;;;;;13.30;7.80;;;;;;;;;;5042535;28;20083;-58
2024/03/08 04:36:58;;;;;;;13.18;7.68;;;;;;;;;;5050929;28;20025;-58
2024/03/08 04:39:27;;;;;;;13.30;7.80;;;;;;;;;;5049437;28;20117;-54
2024/03/08 04:41:54;;;;;;;13.50;8.30;;;;;;;;;;5048726;28;20477;-55
2024/03/08 04:44:20;;;;;;;13.25;7.85;;;;;;;;;;5050016;28;20036;-57
2024/03/08 04:46:46;;;;;;;13.25;7.88;;;;;;;;;;5050353;28;20339;-58
2024/03/08 04:49:13;;;;;;;13.35;8.10;;;;;;;;;;5050098;28;20372;-56
2024/03/08 04:51:40;;;;;;;13.40;8.32;;;;;;;;;;5050258;28;20494;-53
2024/03/08 04:54:06;;;;;;;13.18;7.80;;;;;;;;;;5050112;28;20025;-54
2024/03/08 04:56:32;;;;;;;13.63;8.45;;;;;;;;;;5050074;28;20033;-53
2024/03/08 04:58:58;;;;;;;12.90;7.53;;;;;;;;;;5048631;28;20056;-54
2024/03/08 05:01:24;;;;;;;13.02;7.60;;;;;;;;;;5049650;28;20079;-55
2024/03/08 05:03:50;;;;;;;13.27;7.70;;;;;;;;;;5049741;28;20525;-56
2024/03/08 05:06:17;;;;;;;13.05;7.65;;;;;;;;;;5049950;28;20017;-57
2024/03/08 05:08:43;;;;;;;19.42;14.57;;;;;;;;;;5049754;28;20033;-59
2024/03/08 05:11:09;;;;;;;23.83;13.77;;;;;;;;;;5048199;28;20574;-57
2024/03/08 05:13:35;;;;;;;13.30;7.90;;;;;;;;;;5049280;28;20048;-59
2024/03/08 05:16:02;;;;;;;13.40;8.07;;;;;;;;;;5049610;28;20032;-58
2024/03/08 05:18:28;;;;;;;13.48;8.13;;;;;;;;;;5048132;28;20441;-56
2024/03/08 05:20:54;;;;;;;13.70;9.10;;;;;;;;;;5049440;28;20021;-58
2024/03/08 05:23:22;;;;;;;13.38;8.00;;;;;;;;;;5048661;28;20025;-57
2024/03/08 05:25:48;;;;;;;13.60;8.60;;;;;;;;;;5048319;28;20021;-57
2024/03/08 05:28:14;;;;;;;15.10;9.35;;;;;;;;;;5049467;28;20032;-56
2024/03/08 05:30:40;;;;;;;13.48;8.20;;;;;;;;;;5049417;28;20402;-58
2024/03/08 05:33:10;;;;;;;13.23;7.97;;;;;;;;;;5048901;28;20017;-57
2024/03/08 05:35:36;;;;;;;13.48;8.13;;;;;;;;;;5049273;28;20092;-59
2024/03/08 05:38:02;;;;;;;14.35;8.95;;;;;;;;;;5049288;28;20479;-56
2024/03/08 05:40:31;;;;;;;13.45;8.40;;;;;;;;;;5049002;28;20059;-59
2024/03/08 05:42:58;;;;;;;14.20;9.00;;;;;;;;;;5048438;28;20021;-56
2024/03/08 05:45:25;;;;;;;13.60;8.60;;;;;;;;;;5048640;28;20021;-60
2024/03/08 05:47:51;;;;;;;13.68;9.00;;;;;;;;;;5048473;28;20131;-58
2024/03/08 05:50:17;;;;;;;14.52;10.77;;;;;;;;;;5048582;28;20025;-56
2024/03/08 05:52:44;;;;;;;13.77;8.98;;;;;;;;;;5048201;28;20100;-56
2024/03/08 05:55:09;;;;;;;13.70;9.27;;;;;;;;;;5048990;28;20174;-59
2024/03/08 05:57:39;;;;;;;13.35;8.20;;;;;;;;;;5049066;28;20100;-56
2024/03/08 06:00:06;;;;;;;13.80;8.90;;;;;;;;;;5048576;28;20017;-55
2024/03/08 06:02:32;;;;;;;13.45;8.43;;;;;;;;;;5048389;28;20041;-55
2024/03/08 06:04:58;;;;;;;13.43;8.30;;;;;;;;;;5049378;28;20029;-56
2024/03/08 06:07:24;;;;;;;14.10;9.73;;;;;;;;;;5048779;28;20025;-55
2024/03/08 06:09:50;;;;;;;13.48;8.32;;;;;;;;;;5048599;28;20028;-55
2024/03/08 06:12:18;;;;;;;13.60;8.35;;;;;;;;;;5047971;28;20064;-58
2024/03/08 06:14:45;;;;;;;13.38;8.30;;;;;;;;;;5048917;28;20029;-58
2024/03/08 06:17:11;;;;;;;13.50;8.40;;;;;;;;;;5048472;28;20036;-58
2024/03/08 06:19:37;;;;;;;13.48;8.40;;;;;;;;;;5048714;28;20029;-59
2024/03/08 06:22:05;;;;;;;13.48;8.50;;;;;;;;;;5048861;28;20040;-56
2024/03/08 06:24:32;;;;;;;13.40;8.57;;;;;;;;;;5048226;28;20033;-57
2024/03/08 06:26:58;;;;;;;13.50;8.40;;;;;;;;;;5048352;28;20483;-58
2024/03/08 06:29:24;;;;;;;13.57;8.50;;;;;;;;;;5048301;28;20048;-55
2024/03/08 06:31:50;;;;;;;13.80;8.90;;;;;;;;;;5048152;28;20059;-54
2024/03/08 06:34:17;;;;;;;13.43;8.30;;;;;;;;;;5048068;28;20020;-58
2024/03/08 06:36:44;;;;;;;13.50;8.30;;;;;;;;;;5049127;28;20075;-60
2024/03/08 06:39:10;;;;;;;13.35;8.18;;;;;;;;;;5048153;28;20508;-54
2024/03/08 06:41:38;;;;;;;13.27;8.00;;;;;;;;;;5047570;28;20158;-58
2024/03/08 06:44:05;;;;;;;13.43;8.10;;;;;;;;;;5047610;28;20027;-55
2024/03/08 06:46:31;;;;;;;13.40;8.10;;;;;;;;;;5047812;28;20043;-57
2024/03/08 06:48:57;;;;;;;13.45;8.10;;;;;;;;;;5048056;28;20061;-57
2024/03/08 06:51:23;;;;;;;13.20;7.90;;;;;;;;;;5047608;28;20025;-54
2024/03/08 06:53:50;;;;;;;13.27;8.00;;;;;;;;;;5047359;28;20050;-56
2024/03/08 06:56:16;;;;;;;13.30;8.00;;;;;;;;;;5048300;28;20071;-55
2024/03/08 06:58:42;;;;;;;13.80;8.77;;;;;;;;;;5050996;28;20045;-56
2024/03/08 07:01:13;;;;;;;13.35;8.15;;;;;;;;;;5051745;28;20033;-55
2024/03/08 07:03:43;;;;;;;13.55;8.48;;;;;;;;;;5051612;28;20382;-51
2024/03/08 07:06:09;;;;;;;13.55;8.35;;;;;;;;;;5052124;28;20017;-54
2024/03/08 07:08:35;;;;;;;13.52;8.43;;;;;;;;;;5038821;28;20025;-55
2024/03/08 07:11:01;;;;;;;13.40;8.32;;;;;;;;;;5049347;28;20109;-55
2024/03/08 07:13:29;;;;;;;13.82;8.88;;;;;;;;;;5031346;28;20026;-57
2024/03/08 07:15:55;;;;;;;14.30;9.15;;;;;;;;;;5036247;28;20063;-54
2024/03/08 07:18:21;;;;;;;14.00;8.90;;;;;;;;;;5051596;28;20517;-56
2024/03/08 07:20:49;;;;;;;15.32;9.95;;;;;;;;;;5050754;28;20044;-54
2024/03/08 07:23:46;;;;;;;13.60;8.48;;;;;;;;;;5050917;28;20096;-56
2024/03/08 07:26:01;;;;;;;13.95;8.77;;;;;;;;;;5032789;28;20618;-55
2024/03/08 07:28:27;;;;;;;15.57;9.75;;;;;;;;;;5031736;28;20041;-57
2024/03/08 07:31:02;;;;;;;14.60;8.68;;;;;;;;;;5031265;28;20040;-57
2024/03/08 07:33:28;;;;;;;13.65;9.00;;;;;;;;;;5029568;28;20038;-55
2024/03/08 07:35:54;;;;;;;23.80;11.90;;;;;;;;;;5029941;28;20417;-57
2024/03/08 07:38:21;;;;;;;13.57;8.40;;;;;;;;;;5031186;28;20029;-58
2024/03/08 07:40:47;;;;;;;13.65;8.80;;;;;;;;;;5031266;28;20025;-57
2024/03/08 07:43:14;;;;;;;13.60;8.68;;;;;;;;;;5050564;28;20033;-56
2024/03/08 07:45:40;;;;;;;13.50;8.50;;;;;;;;;;5051205;28;20021;-60
2024/03/08 07:48:12;;;;;;;13.38;8.27;;;;;;;;;;5051023;28;20036;-56
2024/03/08 07:50:39;;;;;;;13.48;8.55;;;;;;;;;;5051225;28;20096;-54
2024/03/08 07:53:09;;;;;;;14.85;11.75;;;;;;;;;;5050525;28;20025;-58
2024/03/08 07:55:35;;;;;;;20.70;14.00;;;;;;;;;;5050933;28;20029;-54
2024/03/08 07:58:02;;;;;;;13.45;8.38;;;;;;;;;;5050748;28;20037;-56
2024/03/08 08:00:30;;;;;;;17.83;12.45;;;;;;;;;;5050458;28;20090;-53
2024/03/08 08:02:56;;;;;;;13.27;8.23;;;;;;;;;;5050202;28;20045;-57
2024/03/08 08:05:22;;;;;;;13.50;8.40;;;;;;;;;;5050499;28;20083;-60
2024/03/08 08:07:48;;;;;;;13.48;8.40;;;;;;;;;;5044302;28;20033;-60
2024/03/08 08:10:18;;;;;;;13.57;8.65;;;;;;;;;;5030071;28;20147;-57
2024/03/08 08:12:44;;;;;;;13.80;9.40;;;;;;;;;;5030249;28;20495;-57
2024/03/08 08:15:10;;;;;;;13.90;9.68;;;;;;;;;;5030595;28;20038;-58
2024/03/08 08:17:36;;;;;;;13.60;8.75;;;;;;;;;;5030672;28;20033;-55
2024/03/08 08:20:05;;;;;;;14.23;9.57;;;;;;;;;;5030618;28;20116;-56
2024/03/08 08:22:31;;;;;;;13.52;8.55;;;;;;;;;;5029771;28;20021;-58
2024/03/08 08:24:57;;;;;;;13.55;8.50;;;;;;;;;;5031728;28;20072;-59
2024/03/08 08:27:23;;;;;;;15.35;9.20;;;;;;;;;;5032770;28;20179;-59
2024/03/08 08:29:49;;;;;;;18.30;9.52;;;;;;;;;;5032413;28;20136;-60
2024/03/08 08:32:15;;;;;;;21.15;11.68;;;;;;;;;;5032183;28;20028;-57
2024/03/08 08:34:42;;;;;;;13.60;8.80;;;;;;;;;;5030741;28;20112;-59
2024/03/08 08:37:09;;;;;;;13.75;9.00;;;;;;;;;;5030557;28;20033;-55
2024/03/08 08:39:35;;;;;;;14.60;9.63;;;;;;;;;;5030368;28;20434;-59
2024/03/08 08:42:03;;;;;;;16.95;10.98;;;;;;;;;;5036746;28;20479;-59
2024/03/08 08:44:31;;;;;;;13.65;8.82;;;;;;;;;;5049324;28;20073;-56
2024/03/08 08:46:57;;;;;;;16.27;11.60;;;;;;;;;;5050267;28;20032;-57
2024/03/08 08:49:24;;;;;;;16.20;10.20;;;;;;;;;;5050608;28;20548;-56
2024/03/08 08:51:50;;;;;;;14.65;10.25;;;;;;;;;;5049763;28;20060;-59
2024/03/08 08:54:16;;;;;;;14.23;9.40;;;;;;;;;;5049719;28;20070;-56
2024/03/08 08:56:47;;;;;;;13.80;9.02;;;;;;;;;;5049774;28;20021;-56
2024/03/08 08:59:19;;;;;;;13.90;9.68;;;;;;;;;;5048602;28;20047;-53
2024/03/08 09:01:46;;;;;;;13.55;8.52;;;;;;;;;;5049667;28;20032;-49
2024/03/08 09:04:13;;;;;;;13.77;9.00;;;;;;;;;;5049759;28;20025;-51
2024/03/08 09:06:43;;;;;;;13.38;8.30;;;;;;;;;;5049548;28;20103;-49
2024/03/08 09:09:10;;;;;;;13.65;8.70;;;;;;;;;;5042502;28;20020;-54
2024/03/08 09:11:38;;;;;;;17.95;10.35;;;;;;;;;;5027976;28;20527;-53
2024/03/08 09:14:04;;;;;;;22.03;11.23;;;;;;;;;;5027808;28;20648;-53
2024/03/08 09:16:32;;;;;;;13.98;9.15;;;;;;;;;;5028168;28;20272;-51
2024/03/08 09:18:59;;;;;;;15.18;9.98;;;;;;;;;;5029545;28;20025;-52
2024/03/08 09:21:27;;;;;;;13.57;8.57;;;;;;;;;;5026712;28;20033;-50
2024/03/08 09:23:53;;;;;;;18.98;9.50;;;;;;;;;;5028770;28;20030;-53
2024/03/08 09:26:19;;;;;;;13.73;9.20;;;;;;;;;;5028950;28;20506;-59
2024/03/08 09:28:45;;;;;;;13.93;9.63;;;;;;;;;;5027826;28;20398;-52
2024/03/08 09:31:11;;;;;;;16.10;10.20;;;;;;;;;;5028809;28;20133;-54
2024/03/08 09:33:39;;;;;;;14.35;10.43;;;;;;;;;;5027173;28;20049;-55
2024/03/08 09:36:05;;;;;;;16.65;11.38;;;;;;;;;;5028867;28;20025;-49
2024/03/08 09:38:31;;;;;;;13.48;8.30;;;;;;;;;;5029165;28;20033;-51
2024/03/08 09:40:57;;;;;;;14.45;10.68;;;;;;;;;;5029020;28;20025;-51
2024/03/08 09:43:24;;;;;;;13.63;8.90;;;;;;;;;;5028447;28;20025;-53
2024/03/08 09:45:51;;;;;;;14.05;9.00;;;;;;;;;;5028988;28;20061;-52
2024/03/08 09:48:18;;;;;;;14.70;9.65;;;;;;;;;;5029006;28;20411;-54
2024/03/08 09:50:45;;;;;;;14.10;10.05;;;;;;;;;;5029074;28;20088;-52
2024/03/08 09:53:14;;;;;;;13.50;8.60;;;;;;;;;;5028186;28;20435;-55
2024/03/08 09:55:44;;;;;;;17.70;9.65;;;;;;;;;;5028965;28;20022;-57
2024/03/08 10:00:47;;;;;;;13.60;8.80;;;;;;;;;;5028918;28;20025;-55
2024/03/08 10:03:16;;;;;;;13.70;8.70;;;;;;;;;;5028255;28;20029;-48
2024/03/08 10:05:44;;;;;;;13.65;8.85;;;;;;;;;;5028744;28;20067;-60
2024/03/08 10:08:10;;;;;;;15.80;9.90;;;;;;;;;;5028487;28;20398;-56
2024/03/08 10:10:40;;;;;;;15.50;9.55;;;;;;;;;;5028411;28;20032;-56
2024/03/08 10:13:09;;;;;;;20.10;12.43;;;;;;;;;;5027765;28;20387;-58
2024/03/08 10:15:35;;;;;;;15.75;10.40;;;;;;;;;;5028389;28;20025;-57
2024/03/08 10:18:04;;;;;;;14.32;9.15;;;;;;;;;;5028632;28;20075;-57
2024/03/08 10:20:34;;;;;;;15.35;11.48;;;;;;;;;;5028395;28;20377;-57
2024/03/08 10:23:05;;;;;;;13.68;8.90;;;;;;;;;;5027980;28;20094;-56
2024/03/08 10:25:31;;;;;;;13.50;8.32;;;;;;;;;;5028296;28;20105;-58
2024/03/08 10:27:57;;;;;;;17.65;11.18;;;;;;;;;;5028273;28;20531;-57
2024/03/08 10:30:23;;;;;;;16.58;10.23;;;;;;;;;;5028176;28;20403;-57
2024/03/08 10:32:49;;;;;;;13.60;8.80;;;;;;;;;;5026221;28;20025;-60
2024/03/08 10:35:16;;;;;;;13.60;8.75;;;;;;;;;;5029404;28;20041;-56
2024/03/08 10:37:46;;;;;;;13.43;8.20;;;;;;;;;;5029581;28;20060;-57
2024/03/08 10:40:19;;;;;;;14.13;9.75;;;;;;;;;;5028472;28;20028;-56
2024/03/08 10:42:58;;;;;;;14.48;8.60;;;;;;;;;;5026101;28;20022;-59
2024/03/08 10:45:38;;;;;;;18.15;10.25;;;;;;;;;;5028144;28;20033;-59
2024/03/08 10:48:23;;;;;;;14.45;10.85;;;;;;;;;;5028531;28;20490;-57
2024/03/08 10:50:53;;;;;;;14.63;8.80;;;;;;;;;;5028178;28;20084;-57
2024/03/08 10:53:21;;;;;;;16.35;11.73;;;;;;;;;;5027542;28;20502;-56
2024/03/08 10:55:47;;;;;;;13.80;8.50;;;;;;;;;;5028802;28;20025;-58
2024/03/08 10:58:13;;;;;;;15.15;10.05;;;;;;;;;;5028413;28;20040;-61
2024/03/08 11:00:41;;;;;;;14.27;9.30;;;;;;;;;;5028136;28;20017;-58
2024/03/08 11:03:07;;;;;;;13.43;8.13;;;;;;;;;;5027815;28;20018;-58
2024/03/08 11:05:37;;;;;;;14.65;9.30;;;;;;;;;;5028134;28;20057;-58
2024/03/08 11:08:04;;;;;;;16.08;10.43;;;;;;;;;;5028324;28;20049;-56
2024/03/08 11:10:30;;;;;;;16.50;11.30;;;;;;;;;;5027212;28;20032;-56
2024/03/08 11:12:58;;;;;;;13.90;8.68;;;;;;;;;;5027215;28;20049;-59
2024/03/08 11:15:25;;;;;;;13.55;8.45;;;;;;;;;;5026619;28;20451;-55
2024/03/08 11:17:51;;;;;;;13.68;8.88;;;;;;;;;;5027747;28;20074;-57
2024/03/08 11:20:20;;;;;;;16.45;11.80;;;;;;;;;;5027699;28;20033;-53
2024/03/08 11:22:51;;;;;;;17.30;12.00;;;;;;;;;;5027365;28;20053;-58
2024/03/08 11:25:32;;;;;;;13.68;8.90;;;;;;;;;;5027884;28;20475;-54
2024/03/08 11:28:07;;;;;;;17.75;12.65;;;;;;;;;;5027845;28;20018;-54
2024/03/08 11:30:33;;;;;;;14.38;9.82;;;;;;;;;;5027460;28;20041;-57
2024/03/08 11:33:03;;;;;;;16.17;12.00;;;;;;;;;;5025777;28;20503;-54
2024/03/08 11:35:29;;;;;;;14.00;9.77;;;;;;;;;;5027593;28;20021;-58
2024/03/08 11:38:00;;;;;;;17.90;11.68;;;;;;;;;;5027493;28;20515;-56
2024/03/08 11:40:27;;;;;;;13.85;9.48;;;;;;;;;;5027384;28;20026;-54
2024/03/08 11:42:53;;;;;;;17.48;12.60;;;;;;;;;;5025327;28;20514;-56
2024/03/08 11:45:21;;;;;;;14.20;10.30;;;;;;;;;;5029680;28;20105;-55
2024/03/08 11:47:47;;;;;;;16.80;13.15;;;;;;;;;;5031153;28;20049;-56
2024/03/08 11:50:18;;;;;;;14.43;10.93;;;;;;;;;;5031127;28;20361;-54
2024/03/08 11:52:44;;;;;;;14.13;10.20;;;;;;;;;;5029162;28;20372;-55
2024/03/08 11:55:12;;;;;;;14.82;11.27;;;;;;;;;;5030757;28;20152;-57
2024/03/08 11:57:38;;;;;;;15.57;10.68;;;;;;;;;;5030866;28;20026;-61
2024/03/08 12:00:08;;;;;;;25.65;11.68;;;;;;;;;;5030800;28;20040;-58
2024/03/08 12:02:38;;;;;;;14.00;9.70;;;;;;;;;;5030303;28;20496;-56
2024/03/08 12:05:06;;;;;;;14.38;10.50;;;;;;;;;;5031098;28;20069;-56
2024/03/08 12:07:34;;;;;;;14.17;10.30;;;;;;;;;;5030677;28;20508;-58
2024/03/08 12:10:18;;;;;;;15.27;11.20;;;;;;;;;;5030302;28;20100;-57
2024/03/08 12:12:45;;;;;;;14.07;10.07;;;;;;;;;;5028758;28;20052;-56
2024/03/08 12:15:11;;;;;;;14.05;9.93;;;;;;;;;;5030614;28;20048;-57
2024/03/08 12:17:39;;;;;;;17.58;11.63;;;;;;;;;;5030549;28;20083;-57
2024/03/08 12:20:31;;;;;;;14.53;10.97;;;;;;;;;;5028359;28;20087;-55
2024/03/08 12:22:58;;;;;;;14.30;10.65;;;;;;;;;;5026547;28;20112;-54
2024/03/08 12:25:37;;;;;;;15.38;11.05;;;;;;;;;;5028530;28;20030;-58
2024/03/08 12:28:14;;;;;;;15.52;11.38;;;;;;;;;;5030406;28;20079;-57
2024/03/08 12:30:47;;;;;;;14.13;10.10;;;;;;;;;;5030164;28;20084;-57
2024/03/08 12:33:13;;;;;;;16.63;12.32;;;;;;;;;;5029392;28;20399;-53
2024/03/08 12:35:39;;;;;;;14.85;10.88;;;;;;;;;;5030796;28;20373;-54
2024/03/08 12:38:06;;;;;;;14.70;11.65;;;;;;;;;;5030116;28;20040;-58
2024/03/08 12:40:34;;;;;;;14.15;10.18;;;;;;;;;;5029876;28;20025;-58
2024/03/08 12:43:00;;;;;;;14.20;10.23;;;;;;;;;;5029291;28;20095;-58
2024/03/08 12:45:27;;;;;;;14.10;10.15;;;;;;;;;;5029816;28;20539;-57
2024/03/08 12:47:53;;;;;;;14.52;10.68;;;;;;;;;;5028731;28;20108;-57
2024/03/08 12:50:24;;;;;;;16.00;13.27;;;;;;;;;;5029670;28;20035;-53
2024/03/08 12:52:50;;;;;;;14.20;10.30;;;;;;;;;;5029009;28;20018;-57
2024/03/08 12:55:18;;;;;;;15.32;11.80;;;;;;;;;;5029570;28;20029;-57
2024/03/08 12:57:44;;;;;;;14.80;11.45;;;;;;;;;;5030032;28;20022;-56
2024/03/08 13:00:13;;;;;;;19.88;12.90;;;;;;;;;;5029618;28;20041;-56
2024/03/08 13:02:42;;;;;;;14.23;10.32;;;;;;;;;;5028799;28;20026;-51
2024/03/08 13:05:10;;;;;;;14.88;10.88;;;;;;;;;;5029173;28;20033;-57
2024/03/08 13:07:37;;;;;;;17.75;14.13;;;;;;;;;;5029490;28;20022;-56
2024/03/08 13:10:04;;;;;;;14.90;11.65;;;;;;;;;;5029207;28;20047;-57
2024/03/08 13:12:30;;;;;;;16.30;11.90;;;;;;;;;;5028471;28;20030;-56
2024/03/08 13:14:56;;;;;;;14.20;10.20;;;;;;;;;;5028213;28;20364;-57
2024/03/08 13:17:22;;;;;;;14.70;11.45;;;;;;;;;;5029330;28;20109;-51
2024/03/08 13:19:48;;;;;;;20.23;12.55;;;;;;;;;;5029239;28;20026;-57
2024/03/08 13:22:16;;;;;;;15.48;11.13;;;;;;;;;;5028473;28;20060;-54
2024/03/08 13:24:45;;;;;;;14.30;10.60;;;;;;;;;;5028515;28;20383;-57
2024/03/08 13:27:21;;;;;;;14.40;10.95;;;;;;;;;;5029072;28;20021;-57
2024/03/08 13:29:48;;;;;;;14.05;9.82;;;;;;;;;;5028838;28;20087;-53
2024/03/08 13:32:14;;;;;;;15.60;11.70;;;;;;;;;;5028546;28;20488;-56
2024/03/08 13:34:47;;;;;;;14.05;10.05;;;;;;;;;;5029315;28;20063;-58
2024/03/08 13:37:15;;;;;;;16.67;11.98;;;;;;;;;;5028799;28;20045;-56
2024/03/08 13:39:43;;;;;;;14.25;10.30;;;;;;;;;;5029097;28;20531;-56
2024/03/08 13:42:16;;;;;;;14.60;10.52;;;;;;;;;;5028196;28;20488;-52
2024/03/08 13:44:48;;;;;;;14.70;11.25;;;;;;;;;;5028828;28;20021;-54
2024/03/08 13:47:17;;;;;;;15.30;10.73;;;;;;;;;;5028795;28;20104;-57
2024/03/08 13:49:43;;;;;;;15.85;11.43;;;;;;;;;;5028580;28;20053;-55
2024/03/08 13:52:09;;;;;;;14.13;10.20;;;;;;;;;;5028361;28;20029;-56
2024/03/08 13:54:36;;;;;;;15.27;11.75;;;;;;;;;;5028583;28;20026;-56
2024/03/08 13:57:04;;;;;;;14.20;10.48;;;;;;;;;;5028495;28;20033;-58
2024/03/08 13:59:32;;;;;;;14.32;10.70;;;;;;;;;;5028243;28;20109;-56
2024/03/08 14:02:00;;;;;;;14.45;10.88;;;;;;;;;;5026826;28;20036;-57
2024/03/08 14:04:27;;;;;;;18.98;11.80;;;;;;;;;;5027952;28;20026;-57
2024/03/08 14:06:56;;;;;;;14.07;10.10;;;;;;;;;;5025631;28;20029;-57
2024/03/08 14:09:24;;;;;;;25.08;22.23;;;;;;;;;;5028192;28;20057;-58
2024/03/08 14:11:53;;;;;;;14.63;11.05;;;;;;;;;;5028115;28;20021;-56
2024/03/08 14:14:20;;;;;;;14.30;10.60;;;;;;;;;;5026834;28;20025;-57
2024/03/08 14:16:48;;;;;;;15.27;12.02;;;;;;;;;;5028311;28;20434;-57
2024/03/08 14:19:15;;;;;;;16.15;12.30;;;;;;;;;;5028233;28;20488;-57
2024/03/08 14:21:42;;;;;;;15.55;12.38;;;;;;;;;;5027143;28;20028;-55
2024/03/08 14:24:08;;;;;;;14.70;11.00;;;;;;;;;;5026353;28;20112;-58
2024/03/08 14:26:34;;;;;;;15.60;11.30;;;;;;;;;;5023944;28;20017;-55
2024/03/08 14:29:01;;;;;;;14.40;10.88;;;;;;;;;;5036357;28;20024;-58